createdAt,value
2019-05-13T00:00:53.870Z,6.08
2019-05-13T00:03:20.033Z,6.00
2019-05-13T00:05:46.203Z,3.92
2019-05-13T00:08:13.943Z,4.20
2019-05-13T00:10:40.449Z,5.75
2019-05-13T00:13:06.589Z,5.03
2019-05-13T00:15:34.046Z,5.17
2019-05-13T00:18:00.490Z,5.35
2019-05-13T00:20:26.753Z,4.83
2019-05-13T00:22:53.817Z,4.97
2019-05-13T00:25:20.271Z,7.65
2019-05-13T00:27:46.388Z,5.78
2019-05-13T00:30:14.566Z,6.17
2019-05-13T00:32:44.320Z,9.95
2019-05-13T00:35:14.231Z,5.62
2019-05-13T00:37:44.034Z,7.87
2019-05-13T00:40:09.954Z,4.25
2019-05-13T00:42:36.219Z,5.55
2019-05-13T00:45:04.386Z,3.72
2019-05-13T00:47:30.541Z,7.45
2019-05-13T00:49:57.707Z,6.05
2019-05-13T00:52:23.975Z,4.83
2019-05-13T00:54:50.267Z,5.00
2019-05-13T00:57:16.552Z,4.22
2019-05-13T00:59:44.263Z,7.70
2019-05-13T01:02:10.580Z,4.50
2019-05-13T01:04:36.745Z,6.22
2019-05-13T01:07:04.497Z,8.15
2019-05-13T01:09:30.783Z,7.47
2019-05-13T01:11:57.050Z,4.65
2019-05-13T01:14:23.588Z,4.95
2019-05-13T01:16:49.864Z,7.25
2019-05-13T01:19:16.137Z,5.03
2019-05-13T01:21:43.453Z,3.90
2019-05-13T01:24:14.195Z,4.65
2019-05-13T01:26:39.864Z,5.80
2019-05-13T01:29:06.263Z,5.45
2019-05-13T01:31:34.385Z,7.72
2019-05-13T01:34:00.619Z,4.80
2019-05-13T01:36:26.908Z,5.37
2019-05-13T01:38:54.073Z,4.62
2019-05-13T01:41:21.200Z,4.05
2019-05-13T01:43:47.325Z,3.83
2019-05-13T01:46:13.695Z,4.10
2019-05-13T01:48:39.916Z,5.75
2019-05-13T01:51:06.222Z,4.25
2019-05-13T01:53:33.606Z,8.13
2019-05-13T01:56:00.316Z,6.65
2019-05-13T01:58:26.645Z,4.75
2019-05-13T02:00:55.225Z,4.83
2019-05-13T02:03:21.120Z,6.28
2019-05-13T02:05:47.284Z,5.65
2019-05-13T02:08:14.375Z,6.62
2019-05-13T02:10:54.831Z,4.12
2019-05-13T02:13:24.539Z,3.30
2019-05-13T02:15:50.435Z,8.18
2019-05-13T02:18:16.687Z,7.47
2019-05-13T02:20:44.390Z,5.85
2019-05-13T02:23:10.775Z,5.45
2019-05-13T02:25:37.445Z,5.60
2019-05-13T02:28:09.283Z,9.58
2019-05-13T02:30:34.884Z,6.12
2019-05-13T02:33:02.760Z,4.72
2019-05-13T02:35:32.261Z,9.40
2019-05-13T02:38:16.891Z,6.92
2019-05-13T02:40:25.491Z,3.98
2019-05-13T02:42:52.327Z,9.48
2019-05-13T02:45:18.705Z,4.35
2019-05-13T02:47:45.039Z,4.55
2019-05-13T02:50:12.894Z,6.85
2019-05-13T02:52:39.599Z,7.20
2019-05-13T02:55:06.114Z,9.10
2019-05-13T02:57:32.942Z,6.12
2019-05-13T02:59:59.425Z,7.10
2019-05-13T03:02:25.637Z,7.33
2019-05-13T03:04:52.494Z,13.83
2019-05-13T03:07:18.882Z,8.05
2019-05-13T03:09:44.991Z,8.93
2019-05-13T03:12:13.057Z,11.00
2019-05-13T03:14:44.758Z,4.97
2019-05-13T03:17:12.829Z,8.75
2019-05-13T03:19:37.410Z,9.33
2019-05-13T03:22:03.610Z,5.35
2019-05-13T03:24:32.973Z,6.60
2019-05-13T03:26:57.982Z,7.62
2019-05-13T03:29:24.105Z,8.93
2019-05-13T03:31:54.909Z,5.30
2019-05-13T03:34:18.408Z,7.92
2019-05-13T03:36:46.499Z,7.53
2019-05-13T03:39:16.238Z,7.58
2019-05-13T03:41:45.729Z,7.12
2019-05-13T03:44:13.501Z,11.20
2019-05-13T03:46:42.575Z,9.90
2019-05-13T03:49:13.270Z,10.38
2019-05-13T03:51:38.526Z,7.08
2019-05-13T03:54:05.882Z,10.55
2019-05-13T03:56:32.909Z,13.80
2019-05-13T03:59:02.490Z,12.63
2019-05-13T04:01:28.046Z,9.58
2019-05-13T04:03:54.475Z,8.73
2019-05-13T04:06:23.192Z,7.33
2019-05-13T04:08:48.913Z,13.60
2019-05-13T04:11:15.119Z,9.60
2019-05-13T04:13:42.932Z,10.08
2019-05-13T04:16:12.800Z,8.00
2019-05-13T04:18:38.340Z,9.40
2019-05-13T04:21:04.539Z,20.30
2019-05-13T04:23:32.339Z,6.25
2019-05-13T04:25:58.854Z,12.75
2019-05-13T04:28:25.231Z,11.65
2019-05-13T04:30:52.543Z,11.08
2019-05-13T04:33:22.539Z,10.82
2019-05-13T04:35:47.584Z,7.62
2019-05-13T04:38:13.819Z,8.15
2019-05-13T04:40:42.390Z,8.35
2019-05-13T04:43:08.509Z,9.05
2019-05-13T04:45:34.691Z,10.05
2019-05-13T04:48:03.207Z,12.20
2019-05-13T04:50:32.694Z,10.70
2019-05-13T04:52:57.793Z,15.30
2019-05-13T04:55:24.270Z,14.25
2019-05-13T04:57:53.325Z,10.65
2019-05-13T05:00:42.886Z,14.15
2019-05-13T05:05:47.736Z,10.85
2019-05-13T05:08:47.373Z,10.82
2019-05-13T05:11:25.526Z,17.42
2019-05-13T05:14:13.912Z,15.08
2019-05-13T05:17:12.447Z,8.48
2019-05-13T05:19:52.249Z,12.28
2019-05-13T05:22:27.703Z,13.35
2019-05-13T05:25:16.114Z,6.58
2019-05-13T05:28:04.214Z,10.65
2019-05-13T05:30:51.695Z,11.48
2019-05-13T05:33:27.454Z,10.95
2019-05-13T05:36:01.797Z,17.73
2019-05-13T05:38:55.961Z,15.15
2019-05-13T05:41:25.941Z,11.70
2019-05-13T05:43:53.539Z,8.93
2019-05-13T05:46:22.618Z,11.45
2019-05-13T05:48:53.015Z,10.60
2019-05-13T05:51:22.134Z,8.53
2019-05-13T05:53:51.669Z,9.85
2019-05-13T05:56:21.863Z,12.75
2019-05-13T05:58:48.962Z,10.00
2019-05-13T06:01:15.560Z,10.78
2019-05-13T06:03:43.347Z,8.60
2019-05-13T06:06:12.384Z,9.50
2019-05-13T06:08:41.254Z,11.20
2019-05-13T06:11:07.288Z,9.78
2019-05-13T06:13:35.368Z,16.73
2019-05-13T06:16:01.900Z,13.53
2019-05-13T06:18:28.178Z,12.60
2019-05-13T06:20:54.504Z,17.45
2019-05-13T06:23:22.207Z,12.18
2019-05-13T06:25:48.674Z,16.30
2019-05-13T06:28:14.832Z,12.23
2019-05-13T06:30:41.605Z,12.75
2019-05-13T06:33:08.409Z,9.90
2019-05-13T06:35:34.625Z,11.43
2019-05-13T06:38:01.451Z,11.83
2019-05-13T06:40:27.774Z,8.80
2019-05-13T06:42:53.940Z,13.80
2019-05-13T06:45:21.593Z,13.15
2019-05-13T06:47:48.038Z,16.25
2019-05-13T06:50:14.498Z,15.80
2019-05-13T06:52:42.499Z,18.82
2019-05-13T06:55:11.381Z,15.28
2019-05-13T06:57:37.080Z,14.68
2019-05-13T07:00:06.739Z,15.23
2019-05-13T07:02:33.050Z,13.70
2019-05-13T07:04:59.270Z,12.40
2019-05-13T07:07:25.487Z,10.30
2019-05-13T07:09:51.884Z,8.48
2019-05-13T07:12:18.334Z,17.17
2019-05-13T07:14:44.529Z,9.85
2019-05-13T07:17:12.360Z,10.45
2019-05-13T07:19:41.238Z,13.75
2019-05-13T07:22:06.898Z,10.80
2019-05-13T07:24:33.164Z,14.50
2019-05-13T07:27:01.837Z,13.22
2019-05-13T07:29:27.884Z,13.48
2019-05-13T07:31:54.125Z,13.50
2019-05-13T07:34:24.547Z,9.50
2019-05-13T07:36:48.633Z,14.98
2019-05-13T07:39:15.145Z,11.97
2019-05-13T07:41:43.066Z,12.33
2019-05-13T07:44:11.838Z,12.10
2019-05-13T07:46:37.725Z,11.53
2019-05-13T07:49:03.874Z,12.95
2019-05-13T07:51:31.668Z,12.70
2019-05-13T07:53:58.153Z,11.75
2019-05-13T07:56:24.321Z,12.60
2019-05-13T07:58:52.385Z,11.83
2019-05-13T08:01:18.869Z,13.43
2019-05-13T08:03:45.049Z,13.65
2019-05-13T08:06:11.349Z,13.30
2019-05-13T08:08:37.611Z,15.48
2019-05-13T08:11:04.094Z,15.55
2019-05-13T08:13:31.455Z,15.48
2019-05-13T08:15:57.843Z,8.80
2019-05-13T08:18:24.209Z,9.35
2019-05-13T08:20:52.466Z,14.23
2019-05-13T08:23:18.677Z,13.25
2019-05-13T08:25:44.912Z,12.23
2019-05-13T08:28:12.316Z,9.43
2019-05-13T08:30:38.774Z,9.93
2019-05-13T08:33:05.107Z,13.50
2019-05-13T08:35:41.578Z,20.85
2019-05-13T08:38:12.041Z,11.35
2019-05-13T08:40:38.533Z,12.30
2019-05-13T08:43:06.887Z,10.60
2019-05-13T08:45:33.341Z,11.35
2019-05-13T08:48:01.770Z,13.00
2019-05-13T08:50:27.803Z,11.10
2019-05-13T08:52:53.919Z,7.33
2019-05-13T08:55:21.487Z,13.43
2019-05-13T08:57:47.745Z,12.93
2019-05-13T09:00:18.068Z,13.28
2019-05-13T09:02:44.272Z,10.35
2019-05-13T09:05:12.026Z,9.10
2019-05-13T09:07:41.140Z,10.15
2019-05-13T09:10:06.973Z,17.05
2019-05-13T09:12:37.064Z,11.55
2019-05-13T09:15:03.278Z,14.90
2019-05-13T09:17:31.861Z,12.45
2019-05-13T09:19:58.143Z,15.03
2019-05-13T09:22:24.474Z,11.95
2019-05-13T09:24:52.988Z,12.65
2019-05-13T09:27:18.845Z,12.58
2019-05-13T09:29:44.955Z,12.37
2019-05-13T09:32:12.220Z,11.95
2019-05-13T09:34:38.739Z,7.72
2019-05-13T09:37:05.124Z,11.08
2019-05-13T09:39:32.344Z,10.78
2019-05-13T09:41:58.801Z,9.63
2019-05-13T09:44:25.040Z,12.75
2019-05-13T09:46:51.790Z,10.32
2019-05-13T09:49:20.041Z,7.42
2019-05-13T09:51:46.110Z,9.28
2019-05-13T09:54:12.288Z,8.50
2019-05-13T09:56:38.510Z,8.58
2019-05-13T09:59:04.640Z,8.63
2019-05-13T10:01:32.049Z,10.68
2019-05-13T10:03:58.394Z,11.43
2019-05-13T10:06:24.615Z,6.70
2019-05-13T10:08:52.688Z,10.03
2019-05-13T10:11:21.534Z,7.15
2019-05-13T10:13:47.091Z,7.70
2019-05-13T10:16:13.337Z,6.42
2019-05-13T10:18:41.866Z,10.08
2019-05-13T10:21:07.627Z,11.43
2019-05-13T10:23:34.039Z,7.78
2019-05-13T10:26:04.132Z,10.80
2019-05-13T10:28:31.950Z,8.58
2019-05-13T10:30:58.694Z,9.05
2019-05-13T10:33:25.800Z,10.10
2019-05-13T10:35:52.770Z,6.47
2019-05-13T10:38:22.061Z,11.00
2019-05-13T10:40:48.331Z,6.22
2019-05-13T10:43:29.473Z,12.43
2019-05-13T10:45:43.031Z,5.67
2019-05-13T10:48:10.396Z,9.53
2019-05-13T10:50:37.582Z,9.20
2019-05-13T10:53:03.942Z,5.97
2019-05-13T10:55:32.455Z,8.35
2019-05-13T10:57:58.234Z,12.40
2019-05-13T11:00:42.371Z,6.22
2019-05-13T11:03:08.571Z,6.47
2019-05-13T11:05:41.075Z,7.33
2019-05-13T11:08:04.173Z,6.92
2019-05-13T11:10:32.567Z,7.03
2019-05-13T11:13:01.602Z,6.62
2019-05-13T11:15:32.813Z,6.35
2019-05-13T11:17:56.152Z,4.55
2019-05-13T11:20:22.418Z,7.00
2019-05-13T11:22:48.906Z,5.62
2019-05-13T11:25:15.565Z,7.65
2019-05-13T11:27:42.241Z,6.00
2019-05-13T11:30:08.968Z,6.60
2019-05-13T11:32:35.309Z,8.53
2019-05-13T11:35:02.189Z,7.12
2019-05-13T11:37:32.053Z,5.45
2019-05-13T11:39:58.386Z,5.47
2019-05-13T11:42:24.760Z,5.08
2019-05-13T11:44:52.723Z,6.37
2019-05-13T11:47:19.235Z,10.15
2019-05-13T11:49:45.480Z,3.95
2019-05-13T11:52:12.068Z,8.28
2019-05-13T11:54:38.564Z,4.50
2019-05-13T11:57:06.318Z,5.35
2019-05-13T11:59:33.251Z,6.85
2019-05-13T12:02:04.026Z,6.92
2019-05-13T12:04:27.555Z,8.18
2019-05-13T12:06:54.704Z,6.17
2019-05-13T12:09:22.322Z,5.28
2019-05-13T12:11:48.613Z,5.22
2019-05-13T12:14:39.327Z,9.48
2019-05-13T12:16:43.197Z,5.42
2019-05-13T12:19:11.850Z,5.45
2019-05-13T12:21:42.066Z,6.70
2019-05-13T12:24:10.430Z,3.60
2019-05-13T12:26:34.197Z,4.12
2019-05-13T12:29:02.834Z,4.10
2019-05-13T12:31:33.366Z,7.22
2019-05-13T12:33:57.402Z,4.40
2019-05-13T12:36:24.403Z,6.42
2019-05-13T12:38:53.502Z,3.52
2019-05-13T12:41:22.762Z,4.53
2019-05-13T12:43:47.410Z,6.60
2019-05-13T12:46:13.716Z,6.08
2019-05-13T12:48:40.877Z,6.75
2019-05-13T12:51:07.150Z,5.12
2019-05-13T12:53:33.480Z,6.17
2019-05-13T12:56:03.158Z,4.45
2019-05-13T12:58:28.219Z,6.65
2019-05-13T13:00:54.391Z,3.85
2019-05-13T13:03:23.188Z,4.75
2019-05-13T13:05:48.978Z,4.72
2019-05-13T13:08:28.996Z,6.42
2019-05-13T13:10:43.817Z,6.15
2019-05-13T13:13:10.270Z,5.58
2019-05-13T13:15:42.259Z,6.10
2019-05-13T13:18:05.263Z,6.20
2019-05-13T13:20:41.633Z,8.65
2019-05-13T13:23:04.407Z,7.05
2019-05-13T13:25:29.232Z,5.58
2019-05-13T13:28:10.094Z,7.97
2019-05-13T13:30:24.587Z,5.28
2019-05-13T13:32:54.891Z,7.37
2019-05-13T13:35:21.251Z,6.37
2019-05-13T13:37:47.512Z,6.20
2019-05-13T13:40:14.013Z,5.25
2019-05-13T13:42:43.064Z,6.83
2019-05-13T13:45:10.244Z,5.45
2019-05-13T13:47:36.501Z,8.18
2019-05-13T13:50:05.538Z,6.72
2019-05-13T13:52:33.670Z,7.78
2019-05-13T13:55:06.219Z,9.28
2019-05-13T13:57:28.125Z,7.37
2019-05-13T14:02:25.245Z,8.13
2019-05-13T14:04:54.142Z,8.20
2019-05-13T14:06:59.245Z,9.58
2019-05-13T14:07:31.218Z,6.05
2019-05-13T14:09:47.028Z,8.40
2019-05-13T14:12:13.304Z,10.70
2019-05-13T14:14:41.458Z,7.33
2019-05-13T14:17:07.923Z,11.12
2019-05-13T14:19:34.197Z,6.65
2019-05-13T14:22:01.720Z,8.60
2019-05-13T14:24:28.046Z,8.73
2019-05-13T14:26:55.079Z,6.12
2019-05-13T14:29:36.303Z,8.00
2019-05-13T14:31:52.042Z,5.90
2019-05-13T14:34:18.345Z,7.42
2019-05-13T14:36:44.800Z,9.38
2019-05-13T14:39:12.005Z,5.50
2019-05-13T14:41:38.433Z,5.75
2019-05-13T14:44:07.882Z,6.15
2019-05-13T14:46:46.657Z,13.23
2019-05-13T14:49:02.822Z,5.62
2019-05-13T14:51:29.321Z,7.28
2019-05-13T14:53:55.553Z,4.55
2019-05-13T14:56:22.232Z,5.92
2019-05-13T14:58:48.457Z,8.03
2019-05-13T15:01:19.818Z,7.03
2019-05-13T15:03:43.153Z,11.35
2019-05-13T15:06:11.785Z,6.87
2019-05-13T15:08:37.926Z,9.25
2019-05-13T15:11:04.220Z,7.37
2019-05-13T15:13:31.882Z,6.40
2019-05-13T15:15:58.783Z,12.98
2019-05-13T15:18:25.032Z,9.35
2019-05-13T15:20:52.925Z,4.87
2019-05-13T15:23:22.090Z,5.83
2019-05-13T15:25:47.957Z,8.70
2019-05-13T15:28:14.176Z,9.28
2019-05-13T15:30:42.075Z,6.17
2019-05-13T15:33:08.775Z,6.35
2019-05-13T15:35:35.067Z,6.20
2019-05-13T15:38:02.104Z,8.80
2019-05-13T15:40:31.088Z,6.30
2019-05-13T15:42:56.838Z,10.50
2019-05-13T15:45:23.266Z,6.50
2019-05-13T15:47:51.555Z,8.83
2019-05-13T15:50:17.881Z,11.22
2019-05-13T15:52:44.161Z,6.12
2019-05-13T15:55:11.983Z,9.00
2019-05-13T15:57:38.617Z,4.72
2019-05-13T16:00:07.257Z,4.15
2019-05-13T16:02:33.522Z,7.17
2019-05-13T16:05:02.272Z,5.47
2019-05-13T16:07:28.237Z,8.40
2019-05-13T16:09:54.608Z,7.08
2019-05-13T16:12:21.310Z,6.53
2019-05-13T16:14:48.057Z,11.08
2019-05-13T16:17:14.317Z,5.47
2019-05-13T16:19:42.003Z,10.95
2019-05-13T16:22:08.625Z,6.97
2019-05-13T16:24:34.839Z,7.50
2019-05-13T16:27:02.478Z,7.30
2019-05-13T16:29:31.514Z,6.87
2019-05-13T16:31:58.168Z,7.30
2019-05-13T16:34:24.457Z,6.12
2019-05-13T16:36:53.036Z,5.05
2019-05-13T16:39:21.100Z,7.30
2019-05-13T16:41:47.032Z,8.73
2019-05-13T16:44:13.319Z,9.08
2019-05-13T16:46:42.560Z,12.63
2019-05-13T16:49:08.577Z,5.65
2019-05-13T16:51:34.821Z,3.92
2019-05-13T16:54:01.051Z,4.45
2019-05-13T16:56:30.371Z,5.47
2019-05-13T16:58:55.491Z,5.45
2019-05-13T17:01:22.066Z,4.58
2019-05-13T17:03:48.417Z,4.78
2019-05-13T17:06:14.586Z,10.88
2019-05-13T17:08:42.462Z,5.42
2019-05-13T17:11:11.545Z,6.15
2019-05-13T17:13:37.463Z,4.37
2019-05-13T17:16:04.047Z,5.53
2019-05-13T17:18:32.327Z,7.95
2019-05-13T17:20:58.535Z,4.65
2019-05-13T17:23:24.774Z,8.33
2019-05-13T17:25:51.990Z,3.83
2019-05-13T17:28:18.384Z,5.65
2019-05-13T17:30:44.679Z,6.17
2019-05-13T17:33:11.771Z,6.50
2019-05-13T17:35:38.360Z,4.00
2019-05-13T17:38:04.872Z,6.17
2019-05-13T17:40:31.552Z,7.03
2019-05-13T17:42:59.927Z,6.78
2019-05-13T17:45:26.251Z,4.92
2019-05-13T17:47:52.424Z,9.43
2019-05-13T17:50:18.756Z,3.75
2019-05-13T17:52:44.897Z,5.17
2019-05-13T17:55:11.875Z,6.65
2019-05-13T17:57:38.236Z,5.75
2019-05-13T18:00:05.906Z,3.62
2019-05-13T18:02:32.166Z,5.17
2019-05-13T18:04:58.418Z,5.92
2019-05-13T18:07:24.726Z,5.42
2019-05-13T18:09:52.050Z,4.72
2019-05-13T18:12:19.087Z,5.67
2019-05-13T18:14:45.514Z,7.58
2019-05-13T18:17:12.513Z,4.75
2019-05-13T18:19:38.976Z,5.70
2019-05-13T18:22:05.300Z,7.25
2019-05-13T18:24:32.164Z,5.20
2019-05-13T18:26:58.549Z,3.20
2019-05-13T18:29:24.657Z,5.95
2019-05-13T18:31:52.430Z,4.75
2019-05-13T18:34:18.824Z,5.55
2019-05-13T18:36:45.035Z,3.00
2019-05-13T18:39:12.412Z,3.08
2019-05-13T18:41:41.208Z,6.50
2019-05-13T18:44:06.941Z,4.60
2019-05-13T18:46:33.250Z,7.00
2019-05-13T18:49:02.063Z,5.30
2019-05-13T18:51:27.926Z,5.35
2019-05-13T18:53:54.184Z,7.53
2019-05-13T18:56:21.933Z,6.20
2019-05-13T18:58:48.055Z,6.00
2019-05-13T19:01:14.362Z,9.70
2019-05-13T19:03:41.419Z,6.90
2019-05-13T19:06:07.795Z,10.32
2019-05-13T19:08:34.113Z,6.90
2019-05-13T19:11:01.140Z,6.25
2019-05-13T19:13:27.699Z,8.13
2019-05-13T19:15:53.998Z,10.95
2019-05-13T19:18:21.480Z,10.68
2019-05-13T19:20:47.866Z,10.10
2019-05-13T19:23:14.099Z,11.12
2019-05-13T19:25:42.756Z,10.18
2019-05-13T19:28:08.354Z,7.87
2019-05-13T19:30:34.501Z,7.37
2019-05-13T19:33:01.361Z,6.37
2019-05-13T19:35:27.715Z,9.88
2019-05-13T19:37:53.902Z,7.47
2019-05-13T19:40:22.044Z,4.90
2019-05-13T19:42:48.306Z,9.85
2019-05-13T19:45:15.628Z,6.70
2019-05-13T19:47:42.076Z,4.33
2019-05-13T19:50:08.664Z,4.05
2019-05-13T19:52:34.948Z,4.00
2019-05-13T19:55:04.125Z,9.10
2019-05-13T19:57:31.723Z,7.33
2019-05-13T19:59:58.182Z,4.72
2019-05-13T20:02:24.409Z,8.33
2019-05-13T20:04:51.865Z,6.28
2019-05-13T20:07:18.517Z,7.58
2019-05-13T20:09:44.836Z,9.30
2019-05-13T20:12:11.365Z,5.67
2019-05-13T20:14:37.902Z,11.00
2019-05-13T20:17:04.214Z,4.67
2019-05-13T20:19:46.150Z,6.00
2019-05-13T20:22:02.208Z,4.47
2019-05-13T20:24:28.232Z,5.67
2019-05-13T20:26:54.410Z,6.28
2019-05-13T20:29:20.670Z,3.35
2019-05-13T20:31:48.120Z,4.62
2019-05-13T20:34:14.243Z,6.78
2019-05-13T20:36:42.322Z,5.22
2019-05-13T20:39:08.708Z,3.83
2019-05-13T20:41:35.076Z,4.95
2019-05-13T20:44:01.634Z,5.67
2019-05-13T20:46:27.888Z,3.55
2019-05-13T20:48:54.132Z,4.45
2019-05-13T20:51:22.010Z,5.47
2019-05-13T20:53:48.250Z,9.28
2019-05-13T20:56:14.415Z,8.15
2019-05-13T20:58:42.164Z,4.78
2019-05-13T21:01:08.498Z,6.25
2019-05-13T21:03:34.639Z,6.35
2019-05-13T21:06:00.819Z,7.97
2019-05-13T21:08:27.028Z,7.40
2019-05-13T21:10:53.319Z,3.42
2019-05-13T21:13:21.191Z,4.08
2019-05-13T21:15:47.468Z,7.22
2019-05-13T21:18:13.687Z,6.33
2019-05-13T21:20:40.971Z,5.58
2019-05-13T21:23:07.287Z,5.70
2019-05-13T21:25:33.529Z,5.58
2019-05-13T21:28:01.963Z,9.23
2019-05-13T21:30:27.902Z,6.55
2019-05-13T21:32:54.119Z,6.95
2019-05-13T21:35:21.197Z,9.90
2019-05-13T21:37:47.607Z,6.37
2019-05-13T21:40:16.120Z,7.53
2019-05-13T21:42:42.221Z,7.03
2019-05-13T21:45:10.991Z,7.42
2019-05-13T21:47:36.900Z,6.95
2019-05-13T21:50:05.116Z,6.03
2019-05-13T21:52:32.353Z,6.40
2019-05-13T21:54:58.658Z,6.78
2019-05-13T21:57:24.975Z,5.90
2019-05-13T21:59:51.590Z,6.00
2019-05-13T22:02:17.931Z,8.35
2019-05-13T22:04:44.085Z,6.47
2019-05-13T22:07:12.195Z,12.43
2019-05-13T22:09:38.303Z,7.45
2019-05-13T22:12:04.534Z,7.58
2019-05-13T22:14:32.041Z,8.95
2019-05-13T22:16:58.471Z,6.62
2019-05-13T22:19:24.716Z,8.33
2019-05-13T22:21:51.555Z,6.17
2019-05-13T22:24:17.825Z,5.03
2019-05-13T22:26:45.554Z,7.12
2019-05-13T22:29:12.345Z,7.58
2019-05-13T22:31:38.499Z,5.80
2019-05-13T22:34:04.949Z,11.68
2019-05-13T22:36:31.767Z,15.72
2019-05-13T22:38:58.167Z,13.50
2019-05-13T22:41:24.376Z,9.28
2019-05-13T22:43:58.236Z,6.25
2019-05-13T22:46:18.607Z,4.50
2019-05-13T22:48:44.881Z,6.62
2019-05-13T22:51:11.786Z,5.95
2019-05-13T22:53:38.283Z,5.65
2019-05-13T22:56:04.749Z,6.08
2019-05-13T22:58:32.163Z,7.80
2019-05-13T23:00:58.536Z,5.28
2019-05-13T23:03:24.745Z,6.42
2019-05-13T23:05:52.313Z,4.17
2019-05-13T23:08:18.479Z,5.62
2019-05-13T23:10:44.687Z,3.77
2019-05-13T23:13:10.827Z,7.87
2019-05-13T23:15:37.027Z,5.42
2019-05-13T23:18:03.237Z,4.92
2019-05-13T23:20:31.596Z,6.85
2019-05-13T23:22:57.555Z,7.17
2019-05-13T23:25:23.785Z,5.75
2019-05-13T23:27:51.354Z,6.05
2019-05-13T23:30:17.693Z,4.62
2019-05-13T23:32:43.815Z,7.87
2019-05-13T23:35:11.172Z,5.90
2019-05-13T23:37:37.562Z,5.62
2019-05-13T23:40:07.148Z,4.50
2019-05-13T23:42:33.310Z,6.35
2019-05-13T23:44:59.489Z,7.40
2019-05-13T23:47:25.664Z,7.05
2019-05-13T23:49:51.884Z,5.90
2019-05-13T23:52:17.988Z,8.18
2019-05-13T23:54:44.197Z,5.83
2019-05-13T23:57:11.749Z,5.92
2019-05-13T23:59:38.154Z,5.42
